Time;durP1;ratioP1;P1;durP2;ratioP2;P2;SDS_P1;SDS_P2;PMS_P1;PMS_P2;Temp;Humidity;BMP_temperature;BMP_pressure;BME280_temperature;BME280_humidity;BME280_pressure;Samples;Min_cycle;Max_cycle;Signal;HPM_P1;HPM_P2
2024/02/08 00:02:07;;;;;;;12.43;5.07;;;;;;;6.81;57.72;99168.38;4874276;28;102072;-73
2024/02/08 00:04:34;;;;;;;13.88;5.70;;;;;;;6.80;57.56;99161.41;4858078;28;101440;-72
2024/02/08 00:07:00;;;;;;;11.10;4.72;;;;;;;6.84;57.68;99164.78;4874498;28;96809;-73
2024/02/08 00:09:26;;;;;;;14.15;5.85;;;;;;;6.82;58.13;99167.44;4858627;28;97339;-72
2024/02/08 00:11:52;;;;;;;12.23;5.88;;;;;;;6.79;58.30;99154.50;4858493;28;100891;-72
2024/02/08 00:14:17;;;;;;;8.90;5.28;;;;;;;6.83;57.75;99157.84;4857624;28;101355;-73
2024/02/08 00:16:43;;;;;;;13.50;5.50;;;;;;;6.80;57.91;99159.66;4874076;28;98114;-73
2024/02/08 00:19:08;;;;;;;12.77;5.50;;;;;;;6.89;58.01;99155.00;4874362;28;96943;-72
2024/02/08 00:21:35;;;;;;;14.45;5.40;;;;;;;6.78;58.00;99160.66;4875382;28;97996;-73
2024/02/08 00:24:02;;;;;;;11.93;4.85;;;;;;;6.74;58.18;99152.06;4873682;28;97884;-73
2024/02/08 00:26:27;;;;;;;12.98;4.57;;;;;;;6.68;58.13;99159.28;4875491;28;96842;-72
2024/02/08 00:28:53;;;;;;;14.45;5.15;;;;;;;6.67;58.18;99160.19;4857555;28;96953;-73
2024/02/08 00:31:19;;;;;;;8.73;3.63;;;;;;;6.71;58.42;99156.56;4873852;28;98169;-74
2024/02/08 00:33:48;;;;;;;13.45;5.95;;;;;;;6.68;58.35;99156.66;4874075;28;97857;-73
2024/02/08 00:36:15;;;;;;;9.32;5.03;;;;;;;6.68;57.90;99159.28;4881491;28;96744;-73
2024/02/08 00:38:42;;;;;;;11.45;4.30;;;;;;;6.62;58.18;99156.88;4870769;28;97239;-73
2024/02/08 00:41:09;;;;;;;11.07;4.40;;;;;;;6.63;58.68;99155.97;4866820;28;98562;-72
2024/02/08 00:43:34;;;;;;;13.63;4.47;;;;;;;6.64;58.19;99160.31;4873375;28;101090;-73
2024/02/08 00:46:02;;;;;;;13.75;5.82;;;;;;;6.66;58.15;99154.13;4873737;28;96795;-73
2024/02/08 00:48:28;;;;;;;21.83;5.97;;;;;;;6.66;58.33;99167.16;4858047;28;97282;-73
2024/02/08 00:50:54;;;;;;;14.10;5.13;;;;;;;6.62;58.35;99159.50;4858328;28;97926;-73
2024/02/08 00:53:21;;;;;;;10.95;5.05;;;;;;;6.68;58.48;99161.88;4857438;28;101068;-73
2024/02/08 00:55:47;;;;;;;19.10;6.72;;;;;;;6.67;58.25;99157.59;4873157;28;97188;-72
2024/02/08 00:58:15;;;;;;;20.85;8.90;;;;;;;6.68;58.13;99157.50;4882132;28;97052;-73
2024/02/08 01:00:44;;;;;;;25.90;9.63;;;;;;;6.67;58.38;99153.22;4869836;28;101065;-74
2024/02/08 01:03:10;;;;;;;18.30;7.88;;;;;;;6.68;58.19;99162.72;4889486;28;97873;-72
2024/02/08 01:05:36;;;;;;;16.00;6.90;;;;;;;6.62;58.39;99160.34;4872471;28;97110;-73
2024/02/08 01:08:01;;;;;;;15.73;7.00;;;;;;;6.66;58.05;99155.88;4858619;28;97431;-73
2024/02/08 01:10:27;;;;;;;12.80;5.55;;;;;;;6.65;58.24;99148.97;4872824;28;97716;-73
2024/02/08 01:12:54;;;;;;;15.10;6.35;;;;;;;6.63;57.93;99153.38;4873729;28;97579;-72
2024/02/08 01:15:20;;;;;;;13.65;6.07;;;;;;;6.69;58.10;99146.19;4873221;28;97494;-73
2024/02/08 01:17:46;;;;;;;11.68;5.72;;;;;;;6.77;58.17;99138.91;4875295;28;97234;-73
2024/02/08 01:20:18;;;;;;;17.05;5.68;;;;;;;6.77;58.13;99144.13;4873128;28;97839;-74
2024/02/08 01:22:43;;;;;;;10.43;5.18;;;;;;;6.77;58.06;99143.28;4874593;28;101170;-72
2024/02/08 01:25:08;;;;;;;10.13;4.03;;;;;;;6.79;58.02;99141.47;4857216;28;97326;-72
2024/02/08 01:27:34;;;;;;;9.68;5.00;;;;;;;6.82;57.48;99137.91;4873672;28;97586;-73
2024/02/08 01:29:59;;;;;;;11.32;5.82;;;;;;;6.75;57.72;99138.13;4871758;28;101044;-73
2024/02/08 01:32:29;;;;;;;14.48;6.10;;;;;;;6.79;57.91;99144.94;4873464;28;100998;-73
2024/02/08 01:34:55;;;;;;;11.95;5.15;;;;;;;6.80;57.89;99140.56;4873378;28;97983;-73
2024/02/08 01:37:20;;;;;;;16.35;5.28;;;;;;;6.81;57.61;99142.28;4873546;28;96853;-73
2024/02/08 01:39:46;;;;;;;16.23;5.75;;;;;;;6.78;57.73;99145.00;4872657;28;97556;-75
2024/02/08 01:42:15;;;;;;;14.63;5.82;;;;;;;6.79;57.69;99147.53;4857912;28;99855;-74
2024/02/08 01:44:47;;;;;;;15.45;5.55;;;;;;;6.74;57.73;99151.22;4876454;28;98134;-73
2024/02/08 01:47:13;;;;;;;12.48;5.32;;;;;;;6.70;57.77;99139.22;4876673;28;97104;-73
2024/02/08 01:49:39;;;;;;;10.43;4.75;;;;;;;6.73;57.87;99142.56;4876213;28;97422;-72
2024/02/08 01:52:05;;;;;;;11.70;4.82;;;;;;;6.70;58.24;99136.59;4875872;28;101075;-73
2024/02/08 01:54:30;;;;;;;12.68;4.85;;;;;;;6.68;58.31;99138.41;4875770;28;97203;-73
2024/02/08 01:57:03;;;;;;;10.75;4.63;;;;;;;6.74;58.23;99139.03;4860578;28;97226;-72
2024/02/08 01:59:31;;;;;;;13.77;5.28;;;;;;;6.72;57.90;99132.16;4875530;28;101301;-72
2024/02/08 02:02:01;;;;;;;12.18;4.45;;;;;;;6.76;58.24;99125.94;4874623;28;101698;-73
2024/02/08 02:04:27;;;;;;;13.05;4.85;;;;;;;6.83;58.12;99134.38;4874275;28;97356;-73
2024/02/08 02:06:53;;;;;;;12.02;4.88;;;;;;;6.81;58.25;99129.25;4876431;28;96825;-72
2024/02/08 02:09:24;;;;;;;12.02;4.97;;;;;;;6.71;58.31;99128.72;4875761;28;100895;-73
2024/02/08 02:11:55;;;;;;;15.45;5.32;;;;;;;6.77;58.24;99130.25;4877913;28;101006;-73
2024/02/08 02:14:28;;;;;;;13.75;4.90;;;;;;;6.75;58.48;99124.25;4889414;28;96882;-73
2024/02/08 02:17:03;;;;;;;15.23;4.90;;;;;;;6.77;58.14;99114.59;4875969;28;97363;-72
2024/02/08 02:19:30;;;;;;;9.07;4.40;;;;;;;6.68;58.33;99112.31;4860142;28;98115;-74
2024/02/08 02:21:55;;;;;;;12.68;5.07;;;;;;;6.75;58.47;99114.66;4876145;28;97502;-73
2024/02/08 02:24:24;;;;;;;11.10;4.80;;;;;;;6.69;58.68;99116.63;4875543;28;97286;-72
2024/02/08 02:26:51;;;;;;;15.73;5.68;;;;;;;6.65;58.61;99112.44;4876498;28;96818;-73
2024/02/08 02:29:21;;;;;;;16.48;5.35;;;;;;;6.64;58.44;99111.59;4879100;28;98697;-73
2024/02/08 02:31:49;;;;;;;13.32;5.28;;;;;;;6.62;58.61;99109.94;4891440;28;99433;-72
2024/02/08 02:34:14;;;;;;;15.07;5.45;;;;;;;6.61;58.67;99113.47;4891715;28;97491;-73
2024/02/08 02:36:44;;;;;;;13.07;5.55;;;;;;;6.47;58.95;99120.03;4876155;28;97181;-73
2024/02/08 02:39:12;;;;;;;17.30;4.97;;;;;;;6.51;58.88;99118.16;4880547;28;101196;-73
2024/02/08 02:41:40;;;;;;;10.98;4.93;;;;;;;6.54;58.78;99118.03;4874852;28;98398;-73
2024/02/08 02:44:08;;;;;;;17.25;5.80;;;;;;;6.50;58.64;99113.88;4859686;28;97272;-73
2024/02/08 02:46:36;;;;;;;11.55;4.32;;;;;;;6.52;58.60;99109.44;4901481;28;96852;-73
2024/02/08 02:49:03;;;;;;;14.15;5.35;;;;;;;6.57;58.84;99111.00;4875318;28;97468;-72
2024/02/08 02:51:31;;;;;;;12.95;4.75;;;;;;;6.62;58.89;99118.63;4859266;28;97571;-72
2024/02/08 02:53:58;;;;;;;16.38;5.00;;;;;;;6.52;58.57;99110.28;4879604;28;97430;-72
2024/02/08 02:56:23;;;;;;;19.50;5.15;;;;;;;6.48;58.96;99110.44;4876226;28;96743;-73
2024/02/08 02:58:49;;;;;;;12.82;4.93;;;;;;;6.43;58.95;99109.75;4873743;28;101358;-72
2024/02/08 03:01:14;;;;;;;13.43;5.15;;;;;;;6.38;58.72;99115.16;4860233;28;97465;-74
2024/02/08 03:03:40;;;;;;;11.32;4.63;;;;;;;6.30;59.11;99115.44;4875460;28;97075;-73
2024/02/08 03:06:14;;;;;;;12.20;5.22;;;;;;;6.30;59.17;99111.97;4859345;28;97090;-72
2024/02/08 03:08:42;;;;;;;12.77;4.88;;;;;;;6.31;59.40;99109.31;4885343;28;97667;-73
2024/02/08 03:11:12;;;;;;;15.60;5.22;;;;;;;6.19;59.51;99101.06;4874681;28;101062;-73
2024/02/08 03:13:42;;;;;;;11.52;4.72;;;;;;;6.20;59.11;99100.19;4882408;28;97251;-73
2024/02/08 03:16:14;;;;;;;10.88;5.18;;;;;;;6.05;59.73;99086.78;4872199;28;97211;-73
2024/02/08 03:18:45;;;;;;;14.70;5.18;;;;;;;6.07;59.73;99094.53;4870875;28;97862;-73
2024/02/08 03:21:17;;;;;;;16.00;5.97;;;;;;;6.04;59.53;99084.22;4878087;28;101376;-73
2024/02/08 03:23:47;;;;;;;18.77;5.47;;;;;;;6.04;59.47;99090.28;4875253;28;96814;-73
2024/02/08 03:26:16;;;;;;;17.80;6.00;;;;;;;6.07;59.75;99079.75;4883541;28;97557;-72
2024/02/08 03:28:43;;;;;;;14.70;5.63;;;;;;;5.94;59.65;99083.72;4873323;28;98189;-74
2024/02/08 03:31:09;;;;;;;13.00;5.20;;;;;;;5.97;59.10;99078.41;4876362;28;97366;-72
2024/02/08 03:33:37;;;;;;;18.60;5.47;;;;;;;5.96;59.61;99094.06;4881352;28;96884;-73
2024/02/08 03:36:06;;;;;;;18.50;5.32;;;;;;;5.83;60.34;99084.03;4876263;28;96802;-73
2024/02/08 03:38:33;;;;;;;12.27;5.20;;;;;;;5.83;59.61;99089.25;4875440;28;97484;-73
2024/02/08 03:40:59;;;;;;;17.83;6.75;;;;;;;5.82;60.19;99079.75;4875429;28;98429;-73
2024/02/08 03:43:26;;;;;;;22.73;7.47;;;;;;;5.85;59.90;99084.84;4873742;28;96769;-73
2024/02/08 03:45:57;;;;;;;20.35;6.03;;;;;;;5.80;59.96;99084.16;4881582;28;97303;-72
2024/02/08 03:48:23;;;;;;;14.23;5.60;;;;;;;5.83;59.71;99088.41;4874703;28;101625;-73
2024/02/08 03:50:50;;;;;;;24.70;6.10;;;;;;;5.77;59.97;99084.25;4874341;28;101305;-73
2024/02/08 03:53:17;;;;;;;18.90;6.20;;;;;;;5.81;59.58;99093.66;4858600;28;97240;-73
2024/02/08 03:55:51;;;;;;;19.10;6.40;;;;;;;5.76;59.75;99089.50;4874005;28;97109;-72
2024/02/08 03:58:18;;;;;;;16.90;5.50;;;;;;;5.72;59.78;99096.56;4858041;28;101053;-72
2024/02/08 04:00:46;;;;;;;9.43;4.95;;;;;;;5.70;60.14;99087.94;4873674;28;97724;-72
2024/02/08 04:03:14;;;;;;;24.10;5.37;;;;;;;5.72;60.07;99086.16;4879757;28;97201;-74
2024/02/08 04:54:40;;;;;;;16.17;8.30;;;;;;;5.49;60.50;99079.09;4874035;28;97369;-73
2024/02/08 04:57:07;;;;;;;20.80;8.25;;;;;;;5.48;61.07;99079.19;4858087;28;97397;-73
2024/02/08 04:59:36;;;;;;;23.87;9.13;;;;;;;5.53;60.76;99067.72;4857591;28;96836;-73
2024/02/08 05:02:06;;;;;;;17.65;8.40;;;;;;;5.53;60.86;99070.31;4880826;28;97503;-72
2024/02/08 05:04:37;;;;;;;19.23;7.93;;;;;;;5.52;61.24;99073.81;4873394;28;97296;-73
2024/02/08 05:07:06;;;;;;;19.20;8.32;;;;;;;5.44;61.10;99066.25;4880530;28;97390;-72
2024/02/08 05:09:32;;;;;;;18.50;7.65;;;;;;;5.34;61.63;99077.88;4881836;28;96902;-73
2024/02/08 05:12:07;;;;;;;20.93;9.80;;;;;;;5.49;61.44;99073.06;4857179;28;100045;-73
2024/02/08 05:14:36;;;;;;;19.60;8.27;;;;;;;5.60;61.02;99071.78;4858247;28;101615;-72
2024/02/08 05:17:02;;;;;;;18.30;8.30;;;;;;;5.56;60.91;99065.00;4874331;28;96845;-72
2024/02/08 05:19:27;;;;;;;22.63;7.60;;;;;;;5.61;60.84;99067.44;4878616;28;97340;-73
2024/02/08 05:21:54;;;;;;;18.70;7.43;;;;;;;5.57;60.64;99069.31;4876621;28;100686;-72
2024/02/08 05:24:20;;;;;;;24.37;7.27;;;;;;;5.53;61.24;99061.66;4860345;28;97432;-73
2024/02/08 05:26:46;;;;;;;25.27;9.00;;;;;;;5.63;60.77;99057.84;4877124;28;97356;-72
2024/02/08 05:29:19;;;;;;;29.53;8.73;;;;;;;5.55;61.47;99055.47;4858202;28;97707;-74
2024/02/08 05:31:49;;;;;;;21.17;8.93;;;;;;;5.62;61.52;99066.56;4874995;28;101027;-72
2024/02/08 05:34:15;;;;;;;22.27;9.03;;;;;;;5.61;61.32;99065.72;4878690;28;100959;-73
2024/02/08 05:36:42;;;;;;;22.83;8.30;;;;;;;5.57;61.48;99065.84;4874490;28;97371;-75
2024/02/08 05:39:08;;;;;;;18.73;8.67;;;;;;;5.51;61.46;99064.31;4865238;28;97476;-72
2024/02/08 05:41:33;;;;;;;20.33;8.40;;;;;;;5.47;61.58;99065.31;4843346;28;101319;-74
2024/02/08 05:44:05;;;;;;;24.10;8.60;;;;;;;5.47;61.51;99065.31;4874807;28;97436;-73
2024/02/08 05:46:37;;;;;;;24.00;8.60;;;;;;;5.42;61.71;99062.84;4880168;28;96966;-73
2024/02/08 05:49:04;;;;;;;19.00;8.37;;;;;;;5.44;61.76;99055.00;4861599;28;96792;-73
2024/02/08 05:51:31;;;;;;;30.10;9.67;;;;;;;5.49;61.60;99057.44;4875340;28;97871;-73
2024/02/08 05:54:01;;;;;;;25.27;8.87;;;;;;;5.54;61.70;99061.59;4880881;28;97433;-72
2024/02/08 05:56:33;;;;;;;20.80;9.50;;;;;;;5.49;61.91;99073.91;4860615;28;97053;-73
2024/02/08 05:59:05;;;;;;;30.48;9.52;;;;;;;5.47;61.39;99074.84;4877093;28;96725;-72
2024/02/08 06:01:44;;;;;;;20.30;8.53;;;;;;;5.46;61.75;99076.59;4876777;28;101805;-72
2024/02/08 06:04:24;;;;;;;31.17;9.30;;;;;;;5.39;61.77;99082.94;4872922;28;97469;-74
2024/02/08 06:07:05;;;;;;;23.80;8.82;;;;;;;5.40;61.91;99087.22;4875334;28;97218;-72
2024/02/08 06:12:16;;;;;;;23.17;9.13;;;;;;;5.44;61.40;99084.47;4882628;28;101135;-79
2024/02/08 07:37:17;;;;;;;20.60;8.57;;;;;;;5.15;60.12;99081.97;4809099;29;96738;-75
2024/02/08 07:39:46;;;;;;;19.97;8.30;;;;;;;5.16;60.83;99076.72;4805664;29;96666;-75
2024/02/08 07:42:20;;;;;;;19.27;7.80;;;;;;;5.13;60.44;99066.41;4805452;29;97683;-76
2024/02/08 07:44:50;;;;;;;17.87;9.13;;;;;;;5.02;61.19;99073.69;4796715;29;98185;-75
2024/02/08 07:47:24;;;;;;;17.87;7.40;;;;;;;4.99;60.57;99059.03;4808273;29;96887;-75
2024/02/08 07:50:04;;;;;;;22.33;8.27;;;;;;;5.24;60.32;99070.44;4818014;29;96818;-79
2024/02/08 07:55:53;;;;;;;23.13;8.97;;;;;;;5.11;60.75;99041.31;4810658;29;97880;-79
2024/02/08 07:58:48;;;;;;;25.03;8.07;;;;;;;5.14;60.23;99023.00;4793825;29;97049;-79
2024/02/08 08:01:50;;;;;;;25.33;8.77;;;;;;;5.21;60.28;99027.13;4823942;29;96728;-80
2024/02/08 08:08:32;;;;;;;21.17;8.13;;;;;;;5.10;61.13;99013.63;4815024;29;97040;-79
2024/02/08 08:11:45;;;;;;;26.23;7.73;;;;;;;4.73;61.47;99018.22;4806467;29;97294;-79
2024/02/08 08:14:36;;;;;;;25.27;9.07;;;;;;;4.89;61.46;99015.16;4801101;29;96659;-79
2024/02/08 08:20:14;;;;;;;21.15;8.75;;;;;;;4.87;62.22;99004.81;4805704;29;98282;-80
2024/02/08 08:22:54;;;;;;;19.07;7.93;;;;;;;4.81;62.49;99011.94;4806261;29;97106;-80
2024/02/08 08:31:35;;;;;;;16.60;6.90;;;;;;;4.90;61.91;99006.47;4819907;29;97737;-79
2024/02/08 08:35:18;;;;;;;21.30;7.70;;;;;;;4.90;62.17;99009.06;4819823;29;96833;-80
2024/02/08 08:43:37;;;;;;;20.90;7.33;;;;;;;4.92;62.13;99012.47;4766911;29;97086;-80
2024/02/08 08:46:10;;;;;;;21.27;8.70;;;;;;;5.15;61.37;99014.34;4794997;29;97215;-78
2024/02/08 08:48:36;;;;;;;24.40;7.77;;;;;;;5.25;61.49;99018.31;4804873;29;96686;-79
2024/02/08 08:51:11;;;;;;;23.10;8.03;;;;;;;5.38;61.10;99029.16;4818975;29;97180;-79
2024/02/08 08:53:44;;;;;;;22.30;7.80;;;;;;;5.44;60.70;99022.03;4819858;29;97933;-79
2024/02/08 08:56:56;;;;;;;23.03;8.63;;;;;;;5.54;60.77;99017.34;4807312;29;96773;-80
2024/02/08 08:59:25;;;;;;;25.27;8.38;;;;;;;5.66;60.32;98998.69;4808252;29;96700;-78
2024/02/08 09:01:51;;;;;;;17.10;8.10;;;;;;;5.73;60.23;98995.88;4796090;29;97959;-74
2024/02/08 09:04:31;;;;;;;21.03;8.43;;;;;;;5.90;59.66;98998.72;4806002;29;101112;-76
2024/02/08 09:07:10;;;;;;;41.75;16.33;;;;;;;5.76;60.03;98991.41;4792631;29;98076;-75
2024/02/08 09:09:55;;;;;;;34.07;14.17;;;;;;;5.82;59.09;99008.59;4781687;29;97587;-76
2024/02/08 09:12:28;;;;;;;32.60;14.27;;;;;;;5.75;59.53;99014.91;4794707;29;101860;-74
2024/02/08 09:14:59;;;;;;;27.10;12.13;;;;;;;5.87;59.56;99022.28;4794148;29;99205;-75
2024/02/08 09:17:40;;;;;;;29.47;14.73;;;;;;;5.87;59.50;99023.13;4792458;29;98105;-74
2024/02/08 09:20:19;;;;;;;24.05;10.43;;;;;;;5.99;59.21;99021.00;4796638;29;97942;-76
2024/02/08 09:22:52;;;;;;;31.50;10.07;;;;;;;5.97;59.30;99025.44;4795746;29;98452;-75
2024/02/08 10:46:55;;;;;;;15.32;5.47;;;;;;;7.36;55.03;98935.66;4857603;28;97415;-82
2024/02/08 11:24:38;;;;;;;25.63;10.90;;;;;;;6.78;57.09;98890.25;5444279;23;100014;-81
2024/02/08 11:27:04;;;;;;;17.02;6.95;;;;;;;6.97;56.72;98886.84;4889879;28;96530;-81
2024/02/08 11:29:46;;;;;;;24.05;8.95;;;;;;;7.21;56.46;98893.66;4882060;28;99941;-81
2024/02/08 11:32:16;;;;;;;24.75;10.57;;;;;;;7.29;56.12;98888.09;4895944;28;98176;-81
2024/02/08 11:38:34;;;;;;;23.90;10.13;;;;;;;6.81;57.32;98865.78;4900989;28;95746;-81
2024/02/08 11:41:10;;;;;;;15.75;5.25;;;;;;;6.55;57.91;98861.66;4886933;28;96703;-82
2024/02/08 11:43:46;;;;;;;12.07;5.05;;;;;;;6.55;57.82;98879.91;4886546;28;96461;-80
2024/02/08 11:46:46;;;;;;;15.18;7.68;;;;;;;6.75;58.16;98884.31;4873210;28;96719;-81
2024/02/08 11:49:14;;;;;;;16.42;6.78;;;;;;;6.67;58.24;98870.72;4873785;28;96726;-82
2024/02/08 11:51:45;;;;;;;29.05;10.57;;;;;;;6.55;58.50;98875.53;4905705;28;96820;-81
2024/02/08 11:54:39;;;;;;;27.40;8.37;;;;;;;6.76;58.56;98883.38;4905357;28;98888;-79
2024/02/08 11:57:06;;;;;;;26.23;8.93;;;;;;;6.85;58.02;98875.16;4906182;28;96259;-82
2024/02/08 12:08:08;;;;;;;16.88;6.00;;;;;;;6.93;58.45;98886.13;5560073;23;98321;-82
2024/02/08 12:10:35;;;;;;;26.98;11.25;;;;;;;6.88;58.57;98867.22;4958136;28;97789;-79
2024/02/08 12:13:04;;;;;;;16.83;7.63;;;;;;;6.96;58.50;98885.16;4940671;28;99652;-83
2024/02/08 12:15:55;;;;;;;12.85;5.60;;;;;;;7.02;58.02;98887.50;4922478;28;99023;-82
2024/02/08 12:18:22;;;;;;;16.30;7.10;;;;;;;7.06;57.86;98857.75;4937101;28;96563;-84
2024/02/08 12:21:01;;;;;;;10.13;5.53;;;;;;;7.06;58.01;98862.13;4909129;28;97996;-81
2024/02/08 12:23:31;;;;;;;17.05;6.45;;;;;;;7.02;58.13;98864.03;4923921;28;96798;-79
2024/02/08 12:26:01;;;;;;;14.30;6.13;;;;;;;6.89;58.28;98852.41;4908647;28;96577;-81
2024/02/08 12:28:30;;;;;;;23.58;9.45;;;;;;;7.07;57.96;98856.00;4909414;28;95857;-82
2024/02/08 12:44:26;;;;;;;;;;;;;;;6.99;58.71;98841.53;5121769;23;98797;-83
2024/02/08 12:55:04;;;;;;;15.27;6.93;;;;;;;7.34;58.05;98809.59;4988853;23;98602;-79
2024/02/08 12:57:30;;;;;;;16.73;6.07;;;;;;;7.31;57.86;98807.13;4933788;28;101130;-82
2024/02/08 13:08:36;;;;;;;10.07;4.43;;;;;;;6.95;58.36;98800.84;5004850;23;101312;-81
2024/02/08 14:05:04;;;;;;;15.40;5.30;;;;;;;6.97;58.03;98748.56;4845088;29;97054;-80
2024/02/08 14:37:11;;;;;;;13.68;5.55;;;;;;;6.99;58.01;98745.00;5396816;23;98513;-80
2024/02/08 14:39:37;;;;;;;12.80;4.93;;;;;;;7.14;57.97;98748.69;4894092;28;96720;-77
2024/02/08 14:42:11;;;;;;;13.50;5.43;;;;;;;7.17;57.79;98745.94;4875923;28;101327;-77
2024/02/08 14:44:41;;;;;;;19.15;6.35;;;;;;;7.22;58.03;98735.28;4850685;28;101441;-78
2024/02/08 14:47:25;;;;;;;16.10;6.20;;;;;;;7.16;58.35;98723.38;4870278;28;97221;-78
2024/02/08 14:49:54;;;;;;;10.80;5.22;;;;;;;6.96;58.46;98719.03;4853301;28;97618;-77
2024/02/08 14:52:29;;;;;;;13.18;5.82;;;;;;;7.08;58.21;98735.91;4879014;28;98007;-77
2024/02/08 14:55:19;;;;;;;10.23;5.65;;;;;;;7.23;57.83;98747.41;4862989;28;101788;-78
2024/02/08 14:57:45;;;;;;;12.32;5.53;;;;;;;7.14;57.96;98745.22;4874422;28;97162;-77
2024/02/08 15:03:03;;;;;;;13.27;6.75;;;;;;;6.91;58.64;98721.00;4889852;28;97949;-77
2024/02/08 15:05:47;;;;;;;14.18;5.90;;;;;;;7.01;58.93;98724.91;4867414;28;97931;-77
2024/02/08 15:10:44;;;;;;;;;;;;;;;6.92;58.89;98719.22;4894301;28;96956;-77
2024/02/08 15:13:18;;;;;;;12.85;6.72;;;;;;;6.79;59.31;98708.50;4884947;28;97225;-77
2024/02/08 15:15:50;;;;;;;21.20;6.65;;;;;;;7.09;58.78;98715.88;4860753;28;100610;-77
2024/02/08 15:18:30;;;;;;;16.30;7.72;;;;;;;7.14;58.78;98712.13;4897808;28;97265;-78
2024/02/08 15:20:56;;;;;;;19.93;8.87;;;;;;;7.23;58.79;98736.97;4899627;28;96838;-77
2024/02/08 15:23:31;;;;;;;14.75;6.47;;;;;;;7.03;59.24;98732.66;4905203;28;97466;-77
2024/02/08 15:26:02;;;;;;;11.52;7.05;;;;;;;6.95;59.55;98747.78;4861391;28;100430;-78
2024/02/08 15:28:35;;;;;;;19.60;7.88;;;;;;;6.79;60.08;98745.03;4880174;28;97481;-77
2024/02/08 15:31:38;;;;;;;17.02;8.07;;;;;;;6.76;60.44;98743.38;4882373;28;97379;-78
2024/02/08 15:37:13;;;;;;;18.60;8.88;;;;;;;6.67;60.53;98733.38;4849360;28;101238;-79
2024/02/08 15:42:09;;;;;;;18.77;7.80;;;;;;;6.70;60.19;98719.34;4897191;28;96910;-79
2024/02/08 15:44:42;;;;;;;17.23;8.23;;;;;;;6.62;60.70;98719.66;4889138;28;97644;-79
2024/02/08 17:09:01;;;;;;;24.80;12.00;;;;;;;6.69;62.14;98661.13;5415265;23;98721;-76
2024/02/08 17:11:33;;;;;;;27.20;14.10;;;;;;;6.64;61.93;98660.50;4879532;28;97307;-81
2024/02/08 17:25:02;;;;;;;23.75;13.63;;;;;;;6.56;62.32;98645.16;4907564;23;99953;-76
2024/02/08 17:30:05;;;;;;;28.25;15.43;;;;;;;6.65;62.24;98650.91;4856363;28;97271;-76
2024/02/08 17:32:42;;;;;;;34.42;15.27;;;;;;;6.71;61.98;98648.00;4829750;28;96857;-76
2024/02/08 17:35:09;;;;;;;26.20;15.18;;;;;;;6.80;62.00;98645.81;4848244;28;97575;-75
2024/02/08 17:37:38;;;;;;;29.83;14.85;;;;;;;6.78;61.75;98644.22;4852287;28;97349;-76
2024/02/08 17:40:19;;;;;;;29.85;16.38;;;;;;;6.65;62.03;98630.03;4840782;28;97561;-76
2024/02/08 17:42:58;;;;;;;31.10;15.73;;;;;;;6.61;62.27;98637.16;4855636;28;98248;-77
2024/02/08 17:48:20;;;;;;;33.75;17.67;;;;;;;6.66;62.17;98626.50;4845285;28;98598;-77
2024/02/08 17:50:51;;;;;;;38.33;18.27;;;;;;;6.65;62.45;98628.28;4851204;28;97059;-76
2024/02/08 17:53:23;;;;;;;34.10;18.43;;;;;;;6.77;62.37;98632.09;4866775;28;97445;-77
2024/02/08 17:55:53;;;;;;;33.33;19.42;;;;;;;6.84;62.45;98623.09;4849178;29;98082;-76
2024/02/08 17:58:22;;;;;;;37.92;19.73;;;;;;;6.86;62.06;98629.06;4852378;28;96858;-76
2024/02/08 18:00:49;;;;;;;37.97;21.90;;;;;;;6.80;63.13;98627.56;4840950;29;97378;-77
2024/02/08 18:03:25;;;;;;;42.95;22.30;;;;;;;6.80;63.13;98619.75;4839568;28;97033;-76
2024/02/08 18:05:55;;;;;;;30.30;19.48;;;;;;;6.85;63.15;98616.09;4846298;28;101806;-76
2024/02/08 18:08:24;;;;;;;38.28;20.92;;;;;;;6.81;63.36;98615.41;4848798;28;98041;-76
2024/02/08 18:10:53;;;;;;;32.70;18.65;;;;;;;6.94;63.58;98608.69;4852820;28;97951;-77
2024/02/08 18:13:21;;;;;;;37.47;21.95;;;;;;;6.75;63.83;98605.25;4843021;28;96816;-77
2024/02/08 18:15:53;;;;;;;49.83;24.60;;;;;;;6.74;64.25;98598.31;4837926;28;101036;-77
2024/02/08 18:18:22;;;;;;;42.25;24.05;;;;;;;6.81;64.52;98602.38;4838517;29;101096;-78
2024/02/08 18:20:52;;;;;;;45.20;26.95;;;;;;;6.85;64.36;98600.44;4837199;28;96900;-77
2024/02/08 18:23:19;;;;;;;46.67;25.70;;;;;;;6.77;64.86;98592.97;4852351;28;96829;-77
2024/02/08 18:25:51;;;;;;;45.78;25.30;;;;;;;6.78;65.08;98594.69;4867834;28;97689;-77
2024/02/08 18:28:18;;;;;;;;;;;;;;;6.65;65.58;98588.31;4873513;28;100972;-77
2024/02/08 18:30:45;;;;;;;39.47;24.60;;;;;;;6.68;65.74;98583.81;4871664;28;97244;-77
2024/02/08 18:33:15;;;;;;;46.92;26.00;;;;;;;6.72;65.48;98574.06;4865593;28;97020;-77
2024/02/08 18:35:41;;;;;;;45.67;26.85;;;;;;;6.70;65.94;98573.31;4881397;28;99825;-77
2024/02/08 18:38:12;;;;;;;45.47;27.23;;;;;;;6.57;66.71;98581.72;4868633;28;101700;-77
2024/02/08 18:40:37;;;;;;;47.60;27.43;;;;;;;6.64;66.60;98571.84;4880064;28;97328;-77
2024/02/08 18:43:03;;;;;;;47.38;28.55;;;;;;;6.68;66.49;98568.16;4871673;28;97702;-78
2024/02/08 18:45:34;;;;;;;48.05;27.23;;;;;;;6.68;66.54;98580.34;4881266;28;98257;-78
2024/02/08 18:48:10;;;;;;;46.42;27.40;;;;;;;6.55;67.04;98578.31;4863296;28;96874;-77
2024/02/08 18:50:42;;;;;;;45.15;26.52;;;;;;;6.49;67.53;98577.75;4866212;28;97069;-76
2024/02/08 18:53:08;;;;;;;49.72;28.35;;;;;;;6.42;67.71;98571.09;4877532;28;97526;-77
2024/02/08 18:55:43;;;;;;;46.55;28.10;;;;;;;6.42;67.81;98571.09;4844201;28;101204;-77
2024/02/08 18:58:12;;;;;;;48.00;30.65;;;;;;;6.34;67.96;98574.03;4883416;28;97205;-77
2024/02/08 19:00:42;;;;;;;47.85;29.85;;;;;;;6.45;67.98;98564.00;4877069;28;97977;-77
2024/02/08 19:03:08;;;;;;;46.73;28.43;;;;;;;6.34;68.29;98563.63;4891995;28;97331;-77
2024/02/08 19:05:38;;;;;;;51.80;29.67;;;;;;;6.36;68.11;98569.63;4883557;28;98163;-77
2024/02/08 19:08:06;;;;;;;53.20;31.33;;;;;;;6.32;68.88;98568.91;4858951;28;97579;-77
2024/02/08 19:10:32;;;;;;;47.88;29.58;;;;;;;6.40;68.55;98568.59;4908079;28;97426;-77
2024/02/08 19:12:59;;;;;;;47.53;29.95;;;;;;;6.51;68.28;98562.88;4893902;28;96792;-77
2024/02/08 19:15:25;;;;;;;54.13;30.70;;;;;;;6.54;68.17;98563.59;4863334;28;101541;-77
2024/02/08 19:17:51;;;;;;;53.03;31.02;;;;;;;6.62;67.78;98555.41;4859768;28;101479;-77
2024/02/08 19:20:25;;;;;;;59.20;32.80;;;;;;;6.57;68.22;98547.81;4861622;28;97757;-78
2024/02/08 19:22:56;;;;;;;48.95;29.58;;;;;;;6.64;68.56;98539.72;4868291;28;98257;-77
2024/02/08 19:25:29;;;;;;;57.20;31.43;;;;;;;6.43;68.26;98537.16;4849446;28;101490;-77
2024/02/08 19:27:56;;;;;;;51.33;31.10;;;;;;;6.43;68.71;98537.16;4867555;28;101378;-77
2024/02/08 19:30:22;;;;;;;51.95;32.20;;;;;;;6.45;68.70;98524.88;4869690;28;97923;-78
2024/02/08 19:32:50;;;;;;;52.63;32.00;;;;;;;6.40;68.55;98529.50;4875850;28;97319;-82
